createdAt,value
2017-10-26T00:00:29.505Z,8.52
2017-10-26T00:02:57.083Z,5.97
2017-10-26T00:05:24.661Z,9.82
2017-10-26T00:07:52.974Z,5.57
2017-10-26T00:10:20.557Z,4.72
2017-10-26T00:12:48.119Z,4.70
2017-10-26T00:15:15.676Z,4.97
2017-10-26T00:17:43.248Z,11.35
2017-10-26T00:20:10.831Z,4.95
2017-10-26T00:22:38.425Z,5.85
2017-10-26T00:25:06.009Z,5.28
2017-10-26T00:27:33.575Z,9.27
2017-10-26T00:30:01.128Z,6.50
2017-10-26T00:32:28.708Z,7.12
2017-10-26T00:34:56.252Z,9.18
2017-10-26T00:37:23.811Z,7.95
2017-10-26T00:39:51.387Z,8.15
2017-10-26T00:42:18.951Z,9.02
2017-10-26T00:44:46.540Z,5.15
2017-10-26T00:47:14.079Z,5.37
2017-10-26T00:49:41.658Z,6.35
2017-10-26T00:52:09.986Z,6.18
2017-10-26T00:54:37.591Z,10.50
2017-10-26T00:57:05.957Z,8.82
2017-10-26T00:59:33.559Z,3.47
2017-10-26T01:02:01.141Z,5.72
2017-10-26T01:04:28.716Z,5.37
2017-10-26T01:06:56.292Z,4.70
2017-10-26T01:09:23.862Z,4.62
2017-10-26T01:11:51.443Z,4.20
2017-10-26T01:14:19.768Z,8.75
2017-10-26T01:16:47.346Z,4.80
2017-10-26T01:19:14.953Z,5.53
2017-10-26T01:21:42.595Z,6.22
2017-10-26T01:24:10.907Z,3.53
2017-10-26T01:26:38.489Z,5.53
2017-10-26T01:29:06.085Z,3.87
2017-10-26T01:31:33.671Z,4.28
2017-10-26T01:34:01.277Z,8.82
2017-10-26T01:36:28.845Z,6.03
2017-10-26T01:38:56.445Z,12.23
2017-10-26T01:41:24.040Z,3.50
2017-10-26T01:43:51.655Z,3.92
2017-10-26T01:46:20.006Z,3.50
2017-10-26T01:48:47.595Z,4.03
2017-10-26T01:51:15.939Z,4.05
2017-10-26T01:53:43.518Z,6.10
2017-10-26T01:56:11.136Z,3.47
2017-10-26T01:58:38.702Z,9.20
2017-10-26T02:01:07.043Z,4.37
2017-10-26T02:03:34.629Z,3.30
2017-10-26T02:06:02.251Z,3.78
2017-10-26T02:08:30.602Z,3.55
2017-10-26T02:10:58.210Z,3.87
2017-10-26T02:13:25.802Z,5.03
2017-10-26T02:15:53.410Z,6.70
2017-10-26T02:18:21.769Z,5.05
2017-10-26T02:20:49.350Z,3.70
2017-10-26T02:23:17.769Z,7.65
2017-10-26T02:25:45.359Z,3.15
2017-10-26T02:31:18.431Z,3.08
2017-10-26T02:33:46.025Z,8.45
2017-10-26T02:36:13.593Z,3.95
2017-10-26T02:38:41.188Z,6.78
2017-10-26T02:41:08.754Z,3.83
2017-10-26T02:43:36.368Z,2.95
2017-10-26T02:46:03.950Z,2.85
2017-10-26T02:48:32.275Z,2.75
2017-10-26T02:50:59.856Z,2.20
2017-10-26T02:53:27.446Z,1.92
2017-10-26T02:55:55.779Z,2.95
2017-10-26T02:58:23.357Z,14.05
2017-10-26T03:00:50.965Z,2.28
2017-10-26T03:03:18.547Z,2.37
2017-10-26T03:05:46.135Z,6.68
2017-10-26T03:08:14.469Z,4.22
2017-10-26T03:10:42.041Z,3.17
2017-10-26T03:13:09.626Z,3.33
2017-10-26T03:15:37.205Z,9.48
2017-10-26T03:18:04.789Z,6.78
2017-10-26T03:20:33.118Z,33.83
2017-10-26T03:23:00.714Z,6.32
2017-10-26T03:25:28.273Z,10.32
2017-10-26T03:27:55.839Z,11.63
2017-10-26T03:30:24.178Z,3.55
2017-10-26T03:32:51.761Z,5.12
2017-10-26T03:35:19.339Z,2.97
2017-10-26T03:37:47.669Z,2.70
2017-10-26T03:40:15.227Z,2.50
2017-10-26T03:42:42.783Z,2.40
2017-10-26T03:45:10.373Z,1.75
2017-10-26T03:47:37.921Z,2.62
2017-10-26T03:50:05.523Z,8.75
2017-10-26T03:52:33.833Z,7.93
2017-10-26T03:55:01.405Z,3.22
2017-10-26T03:57:28.960Z,2.83
2017-10-26T03:59:56.536Z,2.45
2017-10-26T04:02:24.091Z,6.53
2017-10-26T04:04:51.662Z,2.67
2017-10-26T04:07:19.242Z,3.08
2017-10-26T04:09:46.784Z,1.87
2017-10-26T04:12:14.358Z,2.87
2017-10-26T04:14:41.913Z,2.05
2017-10-26T04:17:09.489Z,3.03
2017-10-26T04:19:37.802Z,2.17
2017-10-26T04:22:05.395Z,1.67
2017-10-26T04:24:32.985Z,3.17
2017-10-26T04:27:01.362Z,2.08
2017-10-26T04:29:29.701Z,1.70
2017-10-26T04:31:57.274Z,1.62
2017-10-26T04:34:24.895Z,2.05
2017-10-26T04:36:52.446Z,2.35
2017-10-26T04:39:20.017Z,3.90
2017-10-26T04:41:47.595Z,2.67
2017-10-26T04:44:15.177Z,1.50
2017-10-26T04:46:42.733Z,1.95
2017-10-26T04:49:10.290Z,1.73
2017-10-26T04:51:37.859Z,1.75
2017-10-26T04:54:05.408Z,1.30
2017-10-26T04:56:32.980Z,2.00
2017-10-26T04:59:00.548Z,2.00
2017-10-26T05:01:28.117Z,1.52
2017-10-26T05:03:56.423Z,2.97
2017-10-26T05:06:24.767Z,1.58
2017-10-26T05:08:53.100Z,5.62
2017-10-26T05:11:20.677Z,1.20
2017-10-26T05:13:48.251Z,1.30
2017-10-26T05:16:15.818Z,5.47
2017-10-26T05:18:44.160Z,4.70
2017-10-26T05:21:11.695Z,1.50
2017-10-26T05:23:39.292Z,2.55
2017-10-26T05:26:06.841Z,1.45
2017-10-26T05:28:34.429Z,7.37
2017-10-26T05:31:01.983Z,1.92
2017-10-26T05:33:29.591Z,3.15
2017-10-26T05:35:57.922Z,2.47
2017-10-26T05:38:25.517Z,4.32
2017-10-26T05:40:53.888Z,3.45
2017-10-26T05:43:22.250Z,7.05
2017-10-26T05:45:49.832Z,2.33
2017-10-26T05:48:18.158Z,3.72
2017-10-26T05:50:45.747Z,5.95
2017-10-26T05:53:13.301Z,1.92
2017-10-26T05:55:40.883Z,2.58
2017-10-26T05:58:09.228Z,6.68
2017-10-26T06:00:36.809Z,4.95
2017-10-26T06:03:04.363Z,8.88
2017-10-26T06:05:31.922Z,7.28
2017-10-26T06:07:59.499Z,2.30
2017-10-26T06:10:27.866Z,2.83
2017-10-26T06:12:55.441Z,3.25
2017-10-26T06:15:23.758Z,4.43
2017-10-26T06:17:51.341Z,5.22
2017-10-26T06:20:18.885Z,6.97
2017-10-26T06:22:46.470Z,14.48
2017-10-26T06:25:14.025Z,6.65
2017-10-26T06:27:41.577Z,3.40
2017-10-26T06:30:09.157Z,12.35
2017-10-26T06:32:36.709Z,4.55
2017-10-26T06:35:04.281Z,3.08
2017-10-26T06:37:31.871Z,6.32
2017-10-26T06:39:59.457Z,4.40
2017-10-26T06:42:27.021Z,8.43
2017-10-26T06:44:54.600Z,6.32
2017-10-26T06:47:22.141Z,7.00
2017-10-26T06:49:49.776Z,2.70
2017-10-26T06:52:17.335Z,3.25
2017-10-26T06:54:44.907Z,3.12
2017-10-26T06:57:12.520Z,4.40
2017-10-26T06:59:40.111Z,6.00
2017-10-26T07:02:07.703Z,7.43
2017-10-26T07:04:35.275Z,10.93
2017-10-26T07:07:02.850Z,6.18
2017-10-26T07:09:30.401Z,3.95
2017-10-26T07:11:57.987Z,12.43
2017-10-26T07:14:26.318Z,16.85
2017-10-26T07:16:53.876Z,11.27
2017-10-26T07:19:21.462Z,18.20
2017-10-26T07:21:49.019Z,18.02
2017-10-26T07:24:17.391Z,7.65
2017-10-26T07:26:44.964Z,10.40
2017-10-26T07:29:12.546Z,6.90
2017-10-26T07:31:40.865Z,8.57
2017-10-26T07:34:08.482Z,8.77
2017-10-26T07:36:36.801Z,12.45
2017-10-26T07:39:04.398Z,5.60
2017-10-26T07:41:32.007Z,18.43
2017-10-26T07:43:59.567Z,13.70
2017-10-26T07:46:27.183Z,12.63
2017-10-26T07:48:54.757Z,9.47
2017-10-26T07:51:23.104Z,4.97
2017-10-26T07:53:50.675Z,3.43
2017-10-26T07:56:18.256Z,4.33
2017-10-26T07:58:46.586Z,2.80
2017-10-26T08:01:14.181Z,3.50
2017-10-26T08:03:41.730Z,2.50
2017-10-26T08:06:09.313Z,4.70
2017-10-26T08:08:37.704Z,18.03
2017-10-26T08:11:06.045Z,2.47
2017-10-26T08:13:33.611Z,2.60
2017-10-26T08:16:01.216Z,6.70
2017-10-26T08:18:28.804Z,6.77
2017-10-26T08:20:56.377Z,8.80
2017-10-26T08:23:24.020Z,2.33
2017-10-26T08:25:51.580Z,1.73
2017-10-26T08:28:19.175Z,16.97
2017-10-26T08:30:47.539Z,3.23
2017-10-26T08:33:15.131Z,2.10
2017-10-26T08:35:43.497Z,3.20
2017-10-26T08:38:11.063Z,3.07
2017-10-26T08:40:39.408Z,3.57
2017-10-26T08:43:06.967Z,5.23
2017-10-26T08:45:34.532Z,7.03
2017-10-26T08:48:02.097Z,2.60
2017-10-26T08:50:29.740Z,1.93
2017-10-26T08:52:57.318Z,2.37
2017-10-26T08:55:24.900Z,2.23
2017-10-26T08:57:53.292Z,1.73
2017-10-26T09:00:21.650Z,3.70
2017-10-26T09:02:49.262Z,3.00
2017-10-26T09:05:16.841Z,2.20
2017-10-26T09:07:44.467Z,2.00
2017-10-26T09:10:12.055Z,2.67
2017-10-26T09:12:39.663Z,1.57
2017-10-26T09:15:08.023Z,3.17
2017-10-26T09:17:35.648Z,6.23
2017-10-26T09:20:03.257Z,4.20
2017-10-26T09:22:30.821Z,3.23
2017-10-26T09:24:59.199Z,3.60
2017-10-26T09:27:26.793Z,3.93
2017-10-26T09:29:54.407Z,2.03
2017-10-26T09:32:21.985Z,1.67
2017-10-26T09:34:50.372Z,2.17
2017-10-26T09:37:18.715Z,3.70
2017-10-26T09:39:46.352Z,1.57
2017-10-26T09:42:13.938Z,10.87
2017-10-26T09:44:41.562Z,4.30
2017-10-26T09:47:09.206Z,2.00
2017-10-26T09:49:36.791Z,11.83
2017-10-26T09:52:04.428Z,5.80
2017-10-26T09:54:32.012Z,2.20
2017-10-26T09:56:59.649Z,2.27
2017-10-26T09:59:27.239Z,7.60
2017-10-26T10:01:54.853Z,8.23
2017-10-26T10:04:23.215Z,3.20
2017-10-26T10:06:51.617Z,1.83
2017-10-26T10:09:19.230Z,1.47
2017-10-26T10:11:46.786Z,4.73
2017-10-26T10:14:14.395Z,2.13
2017-10-26T10:16:42.733Z,4.93
2017-10-26T10:19:10.339Z,2.30
2017-10-26T10:21:37.931Z,8.13
2017-10-26T10:24:05.555Z,3.00
2017-10-26T10:26:33.179Z,1.67
2017-10-26T10:29:00.812Z,1.50
2017-10-26T10:31:28.409Z,1.87
2017-10-26T10:33:56.045Z,5.43
2017-10-26T10:36:23.677Z,3.17
2017-10-26T10:38:51.277Z,3.53
2017-10-26T10:41:18.899Z,1.40
2017-10-26T10:43:46.475Z,3.43
2017-10-26T10:46:14.077Z,1.93
2017-10-26T10:48:41.667Z,1.63
2017-10-26T10:51:10.051Z,1.87
2017-10-26T10:53:37.629Z,0.60
2017-10-26T10:56:05.260Z,2.17
2017-10-26T10:58:33.648Z,2.30
2017-10-26T11:01:02.006Z,1.63
2017-10-26T11:03:30.406Z,0.90
2017-10-26T11:05:58.771Z,3.47
2017-10-26T11:08:27.138Z,3.93
2017-10-26T11:10:55.494Z,2.10
2017-10-26T11:13:23.125Z,1.67
2017-10-26T11:15:50.708Z,1.00
2017-10-26T11:18:18.308Z,1.53
2017-10-26T11:20:46.649Z,0.80
2017-10-26T11:23:14.232Z,1.80
2017-10-26T11:25:41.874Z,1.20
2017-10-26T11:28:09.451Z,1.10
2017-10-26T11:30:37.057Z,1.00
2017-10-26T11:33:04.672Z,1.43
2017-10-26T11:35:32.281Z,1.27
2017-10-26T11:37:59.868Z,5.57
2017-10-26T11:40:27.483Z,0.80
2017-10-26T11:42:55.796Z,1.33
2017-10-26T11:45:23.454Z,3.23
2017-10-26T11:47:51.026Z,1.00
2017-10-26T11:50:18.607Z,0.70
2017-10-26T11:52:46.215Z,1.30
2017-10-26T11:55:13.805Z,3.50
2017-10-26T11:57:41.434Z,0.83
2017-10-26T12:00:09.043Z,2.00
2017-10-26T12:02:36.624Z,2.80
2017-10-26T12:05:04.965Z,1.33
2017-10-26T12:07:32.577Z,2.80
2017-10-26T12:10:01.157Z,1.83
2017-10-26T12:12:29.506Z,0.90
2017-10-26T12:14:57.114Z,1.27
2017-10-26T12:17:24.676Z,3.70
2017-10-26T12:19:52.313Z,4.83
2017-10-26T12:22:20.661Z,4.37
2017-10-26T12:24:48.278Z,7.70
2017-10-26T12:27:15.908Z,1.60
2017-10-26T12:29:44.275Z,1.30
2017-10-26T12:32:11.853Z,1.90
2017-10-26T12:34:40.245Z,1.03
2017-10-26T12:37:07.915Z,2.50
2017-10-26T12:39:35.492Z,3.43
2017-10-26T12:42:03.108Z,3.80
2017-10-26T12:44:31.481Z,2.73
2017-10-26T12:46:59.858Z,4.87
2017-10-26T12:49:27.433Z,9.57
2017-10-26T12:51:55.841Z,1.10
2017-10-26T12:54:23.430Z,2.10
2017-10-26T12:56:51.037Z,1.97
2017-10-26T12:59:18.656Z,5.00
2017-10-26T13:01:46.274Z,2.20
2017-10-26T13:04:13.893Z,3.87
2017-10-26T13:06:41.481Z,1.73
2017-10-26T13:09:09.858Z,1.60
2017-10-26T13:11:38.241Z,1.90
2017-10-26T13:14:06.634Z,3.30
2017-10-26T13:16:34.224Z,2.43
2017-10-26T13:19:01.854Z,2.20
2017-10-26T13:21:29.491Z,8.00
2017-10-26T13:23:57.159Z,7.50
2017-10-26T13:26:26.137Z,3.43
2017-10-26T13:28:53.773Z,1.00
2017-10-26T13:31:21.344Z,4.43
2017-10-26T13:33:48.905Z,12.10
2017-10-26T13:36:16.499Z,1.73
2017-10-26T13:38:44.825Z,1.20
2017-10-26T13:41:12.418Z,3.57
2017-10-26T13:43:40.771Z,1.33
2017-10-26T13:46:08.382Z,3.80
2017-10-26T13:48:35.959Z,2.43
2017-10-26T13:51:03.552Z,1.20
2017-10-26T13:53:31.305Z,2.30
2017-10-26T13:55:58.860Z,1.77
2017-10-26T13:58:26.430Z,2.37
2017-10-26T14:00:54.101Z,2.37
2017-10-26T14:03:21.720Z,1.50
2017-10-26T14:05:49.276Z,1.87
2017-10-26T14:08:16.834Z,18.03
2017-10-26T14:10:44.434Z,5.77
2017-10-26T14:13:12.022Z,2.43
2017-10-26T14:15:40.367Z,2.10
2017-10-26T14:18:07.952Z,2.10
2017-10-26T14:20:35.519Z,2.47
2017-10-26T14:23:03.091Z,2.67
2017-10-26T14:25:31.423Z,4.67
2017-10-26T14:27:58.980Z,2.43
2017-10-26T14:30:26.564Z,4.60
2017-10-26T14:32:54.127Z,2.80
2017-10-26T14:35:21.708Z,3.63
2017-10-26T14:37:50.015Z,1.33
2017-10-26T14:40:17.572Z,4.10
2017-10-26T14:42:45.260Z,1.07
2017-10-26T14:45:12.834Z,6.13
2017-10-26T14:47:40.431Z,2.13
2017-10-26T14:50:08.760Z,11.63
2017-10-26T14:52:36.342Z,1.60
2017-10-26T14:55:03.905Z,2.10
2017-10-26T14:57:31.805Z,1.77
2017-10-26T14:59:59.343Z,4.30
2017-10-26T15:02:27.720Z,1.00
2017-10-26T15:04:56.028Z,3.37
2017-10-26T15:07:23.578Z,2.00
2017-10-26T15:09:51.157Z,6.43
2017-10-26T15:12:18.700Z,3.77
2017-10-26T15:14:46.289Z,1.90
2017-10-26T15:17:13.842Z,3.00
2017-10-26T15:19:41.421Z,1.83
2017-10-26T15:22:08.985Z,3.97
2017-10-26T15:24:36.849Z,3.63
2017-10-26T15:27:04.436Z,1.33
2017-10-26T15:29:32.757Z,1.93
2017-10-26T15:32:00.326Z,1.10
2017-10-26T15:34:27.880Z,2.97
2017-10-26T15:36:56.231Z,2.30
2017-10-26T15:39:24.545Z,3.73
2017-10-26T15:41:52.208Z,7.13
2017-10-26T15:44:19.771Z,3.13
2017-10-26T15:46:47.555Z,3.23
2017-10-26T15:49:15.117Z,3.63
2017-10-26T15:51:42.687Z,1.23
2017-10-26T15:54:10.249Z,4.53
2017-10-26T15:56:37.803Z,2.77
2017-10-26T15:59:05.405Z,9.13
2017-10-26T16:01:33.005Z,1.40
2017-10-26T16:04:00.577Z,8.33
2017-10-26T16:06:28.129Z,7.83
2017-10-26T16:08:55.704Z,1.30
2017-10-26T16:11:23.285Z,5.73
2017-10-26T16:13:51.641Z,1.97
2017-10-26T16:16:19.209Z,3.40
2017-10-26T16:18:46.748Z,2.30
2017-10-26T16:21:14.329Z,4.57
2017-10-26T16:23:42.637Z,7.40
2017-10-26T16:26:10.231Z,2.93
2017-10-26T16:28:37.826Z,17.43
2017-10-26T16:31:06.180Z,15.90
2017-10-26T16:33:33.735Z,35.57
2017-10-26T16:36:01.317Z,11.80
2017-10-26T16:38:28.873Z,18.40
2017-10-26T16:40:56.446Z,15.90
2017-10-26T16:43:24.779Z,27.90
2017-10-26T16:45:52.341Z,27.87
2017-10-26T16:48:19.917Z,24.17
2017-10-26T16:50:47.484Z,20.30
2017-10-26T16:53:15.071Z,20.53
2017-10-26T16:55:43.393Z,12.70
2017-10-26T16:58:10.981Z,12.93
2017-10-26T17:00:38.529Z,9.27
2017-10-26T17:03:06.121Z,11.13
2017-10-26T17:05:34.460Z,14.17
2017-10-26T17:08:02.019Z,8.33
2017-10-26T17:10:29.601Z,14.13
2017-10-26T17:12:57.153Z,9.90
2017-10-26T17:15:24.725Z,12.37
2017-10-26T17:17:52.282Z,3.23
2017-10-26T17:20:19.871Z,3.90
2017-10-26T17:22:48.214Z,5.93
2017-10-26T17:25:15.779Z,2.33
2017-10-26T17:27:43.333Z,4.43
2017-10-26T17:30:10.932Z,8.10
2017-10-26T17:32:38.489Z,4.33
2017-10-26T17:35:06.800Z,3.70
2017-10-26T17:37:34.364Z,6.57
2017-10-26T17:40:01.912Z,8.37
2017-10-26T17:42:29.476Z,6.07
2017-10-26T17:44:57.059Z,4.30
2017-10-26T17:47:24.644Z,3.00
2017-10-26T17:49:52.978Z,8.47
2017-10-26T17:52:20.586Z,4.87
2017-10-26T17:54:48.916Z,10.37
2017-10-26T17:57:16.490Z,12.70
2017-10-26T17:59:44.066Z,6.77
2017-10-26T18:02:11.625Z,6.60
2017-10-26T18:04:39.197Z,9.10
2017-10-26T18:07:06.769Z,10.33
2017-10-26T18:09:35.125Z,9.40
2017-10-26T18:12:02.682Z,12.87
2017-10-26T18:14:30.255Z,16.60
2017-10-26T18:16:57.824Z,30.63
2017-10-26T18:19:26.178Z,15.83
2017-10-26T18:21:53.759Z,36.70
2017-10-26T18:24:22.098Z,28.23
2017-10-26T18:26:49.682Z,41.03
2017-10-26T18:29:17.317Z,33.17
2017-10-26T18:31:44.897Z,24.03
2017-10-26T18:34:12.466Z,29.37
2017-10-26T18:36:40.055Z,28.90
2017-10-26T18:39:07.628Z,32.43
2017-10-26T18:41:35.221Z,37.23
2017-10-26T18:44:03.588Z,39.03
2017-10-26T18:46:31.176Z,29.67
2017-10-26T18:48:58.774Z,26.17
2017-10-26T18:51:26.367Z,35.20
2017-10-26T18:53:53.986Z,25.00
2017-10-26T18:56:22.319Z,37.07
2017-10-26T18:58:49.946Z,35.03
2017-10-26T19:01:17.533Z,23.93
2017-10-26T19:03:45.975Z,22.20
2017-10-26T19:06:13.534Z,12.67
2017-10-26T19:08:41.124Z,15.37
2017-10-26T19:11:08.678Z,16.23
2017-10-26T19:13:36.225Z,22.50
2017-10-26T19:16:03.804Z,22.60
2017-10-26T19:18:31.375Z,14.40
2017-10-26T19:20:58.985Z,18.93
2017-10-26T19:23:27.320Z,16.53
2017-10-26T19:25:54.895Z,10.53
2017-10-26T19:28:23.024Z,11.77
2017-10-26T19:30:50.654Z,8.30
2017-10-26T19:33:19.027Z,22.50
2017-10-26T19:35:47.350Z,9.80
2017-10-26T19:38:14.959Z,6.90
2017-10-26T19:40:43.287Z,5.70
2017-10-26T19:43:10.867Z,6.10
2017-10-26T19:45:38.412Z,8.07
2017-10-26T19:48:05.989Z,8.30
2017-10-26T19:50:33.550Z,8.77
2017-10-26T19:53:01.151Z,14.00
2017-10-26T19:55:28.721Z,8.67
2017-10-26T19:57:56.308Z,13.07
2017-10-26T20:00:23.869Z,11.17
2017-10-26T20:02:51.416Z,9.50
2017-10-26T20:05:19.029Z,11.27
2017-10-26T20:07:46.581Z,13.43
2017-10-26T20:10:14.953Z,13.20
2017-10-26T20:12:42.525Z,10.63
2017-10-26T20:15:10.115Z,7.40
2017-10-26T20:17:37.674Z,15.83
2017-10-26T20:20:05.296Z,11.60
2017-10-26T20:22:32.873Z,12.87
2017-10-26T20:25:01.210Z,11.80
2017-10-26T20:27:28.790Z,9.90
2017-10-26T20:29:56.331Z,8.97
2017-10-26T20:32:23.919Z,7.60
2017-10-26T20:34:51.489Z,5.50
2017-10-26T20:37:19.823Z,6.83
2017-10-26T20:39:47.385Z,8.00
2017-10-26T20:42:14.961Z,5.63
2017-10-26T20:44:42.514Z,6.90
2017-10-26T20:47:10.111Z,7.67
2017-10-26T20:52:43.929Z,5.80
2017-10-26T20:55:17.296Z,9.33
2017-10-26T20:57:50.471Z,12.10
2017-10-26T21:00:23.647Z,8.00
2017-10-26T21:06:01.650Z,8.00
2017-10-26T21:08:35.701Z,7.70
2017-10-26T21:11:08.852Z,10.10
2017-10-26T21:13:42.772Z,7.80
2017-10-26T21:16:10.329Z,12.87
2017-10-26T21:18:37.885Z,5.37
2017-10-26T21:21:05.452Z,7.43
2017-10-26T21:23:33.009Z,7.60
2017-10-26T21:26:00.583Z,5.23
2017-10-26T21:28:28.160Z,8.90
2017-10-26T21:30:55.703Z,10.90
2017-10-26T21:33:23.303Z,7.17
2017-10-26T21:35:50.848Z,5.87
2017-10-26T21:38:21.322Z,8.30
2017-10-26T21:40:49.637Z,6.47
2017-10-26T21:43:17.205Z,8.33
2017-10-26T21:45:44.777Z,6.17
2017-10-26T21:48:12.358Z,16.07
2017-10-26T21:50:39.915Z,16.50
2017-10-26T21:53:07.487Z,15.30
2017-10-26T21:55:35.809Z,5.77
2017-10-26T21:58:03.393Z,9.20
2017-10-26T22:00:30.973Z,8.30
2017-10-26T22:02:58.533Z,6.00
2017-10-26T22:05:26.112Z,12.17
2017-10-26T22:07:54.450Z,7.97
2017-10-26T22:10:22.021Z,7.03
2017-10-26T22:12:49.573Z,6.00
2017-10-26T22:15:17.157Z,8.73
2017-10-26T22:17:45.489Z,9.67
2017-10-26T22:20:13.825Z,7.67
2017-10-26T22:22:42.185Z,7.70
2017-10-26T22:25:09.728Z,7.10
2017-10-26T22:27:37.321Z,14.57
2017-10-26T22:30:05.663Z,9.20
2017-10-26T22:32:33.241Z,5.57
2017-10-26T22:35:00.793Z,6.33
2017-10-26T22:37:28.378Z,6.17
2017-10-26T22:39:56.687Z,9.93
2017-10-26T22:42:24.260Z,4.73
2017-10-26T22:44:51.823Z,5.77
2017-10-26T22:47:19.389Z,5.82
2017-10-26T22:49:46.970Z,3.87
2017-10-26T22:52:14.535Z,5.73
2017-10-26T22:54:42.977Z,7.13
2017-10-26T22:57:10.525Z,4.80
2017-10-26T22:59:38.131Z,8.13
2017-10-26T23:02:05.698Z,4.70
2017-10-26T23:04:34.063Z,11.57
2017-10-26T23:07:01.669Z,6.75
2017-10-26T23:09:29.225Z,9.88
2017-10-26T23:11:56.814Z,7.53
2017-10-26T23:14:24.374Z,5.57
2017-10-26T23:16:52.717Z,5.40
2017-10-26T23:19:20.283Z,5.90
2017-10-26T23:21:47.861Z,3.97
2017-10-26T23:24:15.427Z,4.93
2017-10-26T23:26:43.015Z,8.57
2017-10-26T23:29:10.579Z,5.40
2017-10-26T23:31:38.124Z,5.32
2017-10-26T23:34:06.421Z,6.35
2017-10-26T23:36:33.967Z,9.70
2017-10-26T23:39:01.532Z,4.00
2017-10-26T23:41:29.085Z,6.15
2017-10-26T23:43:56.671Z,9.30
2017-10-26T23:46:24.252Z,6.80
2017-10-26T23:48:51.819Z,5.50
2017-10-26T23:51:19.384Z,3.78
2017-10-26T23:53:46.998Z,5.12
2017-10-26T23:56:14.573Z,6.07
2017-10-26T23:58:42.900Z,5.53
